createdAt,value
2018-06-28T00:01:15.261Z,99.90
2018-06-28T00:04:19.657Z,99.90
2018-06-28T00:07:23.272Z,99.90
2018-06-28T00:10:26.942Z,99.90
2018-06-28T00:13:30.582Z,99.90
2018-06-28T00:16:34.183Z,99.90
2018-06-28T00:22:41.151Z,99.90
2018-06-28T00:25:44.944Z,99.90
2018-06-28T00:28:48.656Z,99.90
2018-06-28T00:31:52.274Z,99.90
2018-06-28T00:34:55.913Z,99.90
2018-06-28T00:41:02.942Z,99.90
2018-06-28T00:44:06.550Z,99.90
2018-06-28T00:47:10.266Z,99.90
2018-06-28T00:50:13.882Z,99.90
2018-06-28T00:53:17.569Z,99.90
2018-06-28T00:56:21.223Z,99.90
2018-06-28T00:59:24.875Z,99.90
2018-06-28T01:02:28.477Z,99.90
2018-06-28T01:05:32.094Z,99.90
2018-06-28T01:08:35.851Z,99.90
2018-06-28T01:11:40.006Z,99.90
2018-06-28T01:14:43.598Z,99.90
2018-06-28T01:17:47.229Z,99.90
2018-06-28T01:20:50.849Z,99.90
2018-06-28T01:26:57.902Z,99.90
2018-06-28T01:30:01.558Z,99.90
2018-06-28T01:36:08.765Z,99.90
2018-06-28T01:45:24.127Z,99.90
2018-06-28T01:48:27.793Z,99.90
2018-06-28T01:51:31.430Z,99.90
2018-06-28T01:54:35.131Z,99.90
2018-06-28T01:57:38.827Z,99.90
2018-06-28T02:00:42.554Z,99.90
2018-06-28T02:03:46.168Z,99.90
2018-06-28T02:06:49.852Z,99.90
2018-06-28T02:09:53.464Z,99.90
2018-06-28T02:12:57.090Z,99.90
2018-06-28T02:16:01.206Z,99.90
2018-06-28T02:19:05.006Z,99.90
2018-06-28T02:22:08.602Z,99.90
2018-06-28T02:25:12.274Z,99.90
2018-06-28T02:28:15.982Z,99.90
2018-06-28T02:31:19.599Z,99.90
2018-06-28T02:34:23.200Z,99.90
2018-06-28T02:37:26.887Z,99.90
2018-06-28T02:40:30.486Z,99.90
2018-06-28T02:43:34.194Z,99.90
2018-06-28T02:46:37.799Z,99.90
2018-06-28T02:49:41.419Z,99.90
2018-06-28T02:52:45.032Z,99.90
2018-06-28T02:55:48.686Z,99.90
2018-06-28T02:58:52.285Z,99.90
2018-06-28T03:01:55.911Z,99.90
2018-06-28T03:04:59.635Z,99.90
2018-06-28T03:08:03.258Z,99.90
2018-06-28T03:14:10.246Z,99.90
2018-06-28T03:17:13.876Z,99.90
2018-06-28T03:20:17.515Z,99.90
2018-06-28T03:23:21.114Z,99.90
2018-06-28T03:26:24.775Z,99.90
2018-06-28T03:29:28.354Z,99.90
2018-06-28T03:32:32.022Z,99.90
2018-06-28T03:35:35.744Z,99.90
2018-06-28T03:38:39.365Z,99.90
2018-06-28T03:41:42.985Z,99.90
2018-06-28T03:47:50.033Z,99.90
2018-06-28T03:50:53.928Z,99.90
2018-06-28T03:53:57.561Z,99.90
2018-06-28T03:57:01.250Z,99.90
2018-06-28T04:00:04.886Z,99.90
2018-06-28T04:03:08.499Z,99.90
2018-06-28T04:06:12.164Z,99.90
2018-06-28T04:09:15.875Z,99.90
2018-06-28T04:12:19.552Z,99.90
2018-06-28T04:15:23.174Z,99.90
2018-06-28T04:18:26.880Z,99.90
2018-06-28T04:21:30.513Z,99.90
2018-06-28T04:24:34.183Z,99.90
2018-06-28T04:27:37.955Z,99.90
2018-06-28T04:30:41.613Z,99.90
2018-06-28T04:33:45.217Z,99.90
2018-06-28T04:36:48.896Z,99.90
2018-06-28T04:39:52.507Z,99.90
2018-06-28T04:42:56.121Z,99.90
2018-06-28T04:45:59.824Z,99.90
2018-06-28T04:49:03.466Z,99.90
2018-06-28T04:52:07.105Z,99.90
2018-06-28T04:55:10.723Z,99.90
2018-06-28T04:58:14.339Z,99.90
2018-06-28T05:01:18.024Z,99.90
2018-06-28T05:04:21.613Z,99.90
2018-06-28T05:07:25.248Z,99.90
2018-06-28T05:10:28.860Z,99.90
2018-06-28T05:13:32.480Z,99.90
2018-06-28T05:19:39.875Z,99.90
2018-06-28T05:25:46.945Z,99.90
2018-06-28T05:28:50.563Z,99.90
2018-06-28T05:31:54.214Z,99.90
2018-06-28T05:34:57.869Z,99.90
2018-06-28T05:38:01.511Z,99.90
2018-06-28T05:41:05.174Z,99.90
2018-06-28T05:44:08.790Z,99.90
2018-06-28T05:47:12.509Z,99.90
2018-06-28T05:50:16.017Z,99.90
2018-06-28T05:53:19.704Z,99.90
2018-06-28T05:56:23.410Z,99.90
2018-06-28T05:59:27.003Z,99.90
2018-06-28T06:05:33.982Z,99.90
2018-06-28T06:08:37.615Z,99.90
2018-06-28T06:14:44.703Z,99.90
2018-06-28T06:20:51.668Z,99.90
2018-06-28T06:23:55.284Z,99.90
2018-06-28T06:26:58.938Z,99.60
2018-06-28T06:30:02.633Z,99.30
2018-06-28T06:33:06.420Z,99.00
2018-06-28T06:36:10.132Z,98.60
2018-06-28T06:39:13.774Z,98.80
2018-06-28T06:42:17.578Z,98.10
2018-06-28T06:45:21.215Z,97.70
2018-06-28T06:48:24.820Z,96.80
2018-06-28T06:51:28.525Z,96.80
2018-06-28T06:54:32.127Z,96.40
2018-06-28T06:57:35.761Z,95.90
2018-06-28T07:03:42.798Z,96.50
2018-06-28T07:06:46.554Z,96.30
2018-06-28T07:09:56.523Z,96.30
2018-06-28T07:13:00.118Z,96.30
2018-06-28T07:16:03.840Z,96.00
2018-06-28T07:19:07.666Z,95.10
2018-06-28T07:22:11.304Z,95.40
2018-06-28T07:25:14.919Z,94.80
2018-06-28T07:31:23.403Z,94.80
2018-06-28T07:34:27.050Z,94.50
2018-06-28T07:40:34.159Z,93.90
2018-06-28T07:43:37.748Z,93.90
2018-06-28T07:46:41.515Z,94.40
2018-06-28T07:49:45.116Z,94.40
2018-06-28T07:52:48.754Z,94.30
2018-06-28T07:55:52.528Z,94.10
2018-06-28T07:58:56.149Z,93.20
2018-06-28T08:01:59.830Z,93.60
2018-06-28T08:05:03.589Z,93.00
2018-06-28T08:08:07.415Z,92.40
2018-06-28T08:11:11.150Z,92.50
2018-06-28T08:14:14.826Z,92.30
2018-06-28T08:17:18.446Z,91.90
2018-06-28T08:20:22.160Z,91.40
2018-06-28T08:23:25.873Z,91.20
2018-06-28T08:26:29.574Z,91.60
2018-06-28T08:29:33.210Z,91.60
2018-06-28T08:32:36.941Z,91.30
2018-06-28T08:35:40.574Z,91.10
2018-06-28T08:38:44.187Z,91.20
2018-06-28T08:41:47.886Z,91.20
2018-06-28T08:44:51.573Z,92.00
2018-06-28T08:47:55.338Z,91.60
2018-06-28T08:50:58.914Z,91.50
2018-06-28T08:54:02.806Z,91.70
2018-06-28T08:57:06.610Z,91.30
2018-06-28T09:00:17.174Z,91.00
2018-06-28T09:03:20.948Z,90.60
2018-06-28T09:06:24.589Z,89.60
2018-06-28T09:09:28.233Z,88.90
2018-06-28T09:12:31.834Z,88.60
2018-06-28T09:18:38.842Z,86.90
2018-06-28T09:21:42.454Z,88.80
2018-06-28T09:24:46.083Z,88.10
2018-06-28T09:27:49.696Z,87.20
2018-06-28T09:30:53.326Z,88.20
2018-06-28T09:33:56.927Z,87.20
2018-06-28T09:37:00.582Z,88.40
2018-06-28T09:40:04.213Z,88.50
2018-06-28T09:43:07.897Z,88.20
2018-06-28T09:46:11.606Z,87.00
2018-06-28T09:49:15.252Z,88.00
2018-06-28T09:55:22.216Z,87.20
2018-06-28T09:58:25.897Z,85.80
2018-06-28T10:01:29.527Z,86.50
2018-06-28T10:04:33.131Z,88.30
2018-06-28T10:07:37.967Z,87.70
2018-06-28T10:10:41.612Z,86.90
2018-06-28T10:13:45.277Z,87.00
2018-06-28T10:16:48.887Z,86.10
2018-06-28T10:19:52.586Z,85.20
2018-06-28T10:22:56.211Z,86.10
2018-06-28T10:29:03.196Z,84.80
2018-06-28T10:35:16.793Z,85.90
2018-06-28T10:38:20.459Z,86.60
2018-06-28T10:41:24.105Z,85.60
2018-06-28T10:44:27.829Z,85.70
2018-06-28T10:47:31.477Z,85.50
2018-06-28T10:50:35.068Z,84.80
2018-06-28T10:53:38.708Z,84.70
2018-06-28T10:56:42.360Z,85.90
2018-06-28T10:59:46.021Z,86.20
2018-06-28T11:02:49.632Z,86.80
2018-06-28T11:05:53.263Z,86.00
2018-06-28T11:08:56.905Z,86.40
2018-06-28T11:12:00.522Z,84.70
2018-06-28T11:15:04.601Z,85.20
2018-06-28T11:21:11.597Z,83.80
2018-06-28T11:24:15.199Z,84.00
2018-06-28T11:27:18.835Z,84.40
2018-06-28T11:30:22.505Z,84.30
2018-06-28T11:33:26.106Z,85.10
2018-06-28T11:39:33.075Z,84.70
2018-06-28T11:42:36.817Z,84.00
2018-06-28T11:45:40.402Z,82.80
2018-06-28T11:48:45.445Z,81.30
2018-06-28T11:54:52.623Z,79.90
2018-06-28T11:57:56.514Z,80.50
2018-06-28T12:01:00.248Z,81.50
2018-06-28T12:04:03.870Z,80.90
2018-06-28T12:07:07.567Z,80.70
2018-06-28T12:10:11.173Z,79.80
2018-06-28T12:13:14.783Z,79.60
2018-06-28T12:16:18.614Z,80.10
2018-06-28T12:19:22.561Z,79.70
2018-06-28T12:22:26.242Z,80.30
2018-06-28T12:25:29.837Z,80.70
2018-06-28T12:28:33.507Z,79.60
2018-06-28T12:31:37.151Z,80.90
2018-06-28T12:34:40.877Z,80.30
2018-06-28T12:37:44.493Z,81.50
2018-06-28T12:40:48.130Z,82.30
2018-06-28T12:43:51.753Z,82.90
2018-06-28T12:49:04.334Z,83.00
2018-06-28T12:52:19.513Z,82.90
2018-06-28T12:55:23.734Z,82.20
2018-06-28T12:58:27.413Z,82.30
2018-06-28T13:01:31.329Z,82.00
2018-06-28T13:07:38.534Z,82.60
2018-06-28T13:10:42.122Z,82.40
2018-06-28T13:13:45.778Z,83.10
2018-06-28T13:16:49.389Z,82.00
2018-06-28T13:19:53.021Z,82.00
2018-06-28T13:22:56.626Z,82.10
2018-06-28T13:26:00.272Z,82.30
2018-06-28T13:29:03.888Z,82.50
2018-06-28T13:32:07.517Z,82.70
2018-06-28T13:35:11.246Z,82.10
2018-06-28T13:38:15.060Z,82.50
2018-06-28T13:41:18.860Z,81.80
2018-06-28T13:44:22.324Z,81.70
2018-06-28T13:47:25.944Z,78.40
2018-06-28T13:50:29.589Z,78.20
2018-06-28T13:53:33.206Z,76.20
2018-06-28T13:56:36.846Z,77.70
2018-06-28T13:59:40.581Z,78.00
2018-06-28T14:02:44.199Z,78.20
2018-06-28T14:05:47.813Z,79.80
2018-06-28T14:08:51.468Z,80.20
2018-06-28T14:11:55.092Z,81.40
2018-06-28T14:18:02.143Z,81.00
2018-06-28T14:21:05.818Z,81.30
2018-06-28T14:24:09.458Z,82.10
2018-06-28T14:27:13.142Z,82.10
2018-06-28T14:30:16.799Z,81.10
2018-06-28T14:36:23.758Z,82.70
2018-06-28T14:39:27.516Z,84.80
2018-06-28T14:42:31.136Z,86.50
2018-06-28T14:45:34.870Z,87.80
2018-06-28T14:48:38.473Z,87.90
2018-06-28T14:51:42.271Z,88.10
2018-06-28T14:54:45.877Z,88.90
2018-06-28T14:57:49.524Z,89.40
2018-06-28T15:03:56.632Z,88.70
2018-06-28T15:07:00.213Z,89.20
2018-06-28T15:13:07.237Z,89.30
2018-06-28T15:16:10.885Z,88.90
2018-06-28T15:19:14.635Z,89.20
2018-06-28T15:25:21.613Z,88.30
2018-06-28T15:28:25.262Z,87.60
2018-06-28T15:31:28.933Z,88.10
2018-06-28T15:34:32.536Z,88.90
2018-06-28T15:40:39.477Z,88.70
2018-06-28T15:43:43.091Z,87.50
2018-06-28T15:46:46.718Z,88.40
2018-06-28T15:49:50.321Z,88.60
2018-06-28T15:52:53.983Z,88.20
2018-06-28T15:55:57.642Z,87.60
2018-06-28T15:59:01.244Z,87.20
2018-06-28T16:05:08.486Z,87.10
2018-06-28T16:08:17.168Z,87.20
2018-06-28T16:11:20.778Z,87.30
2018-06-28T16:14:24.386Z,87.00
2018-06-28T16:17:28.074Z,87.30
2018-06-28T16:20:31.780Z,87.20
2018-06-28T16:23:35.658Z,87.50
2018-06-28T16:26:39.330Z,87.90
2018-06-28T16:29:42.965Z,87.70
2018-06-28T16:32:47.566Z,87.70
2018-06-28T16:35:51.219Z,87.50
2018-06-28T16:38:54.824Z,88.40
2018-06-28T16:45:01.866Z,86.80
2018-06-28T16:48:05.632Z,86.60
2018-06-28T16:51:09.374Z,86.80
2018-06-28T16:54:12.987Z,86.60
2018-06-28T16:57:16.636Z,87.00
2018-06-28T17:00:21.062Z,87.10
2018-06-28T17:03:25.151Z,87.30
2018-06-28T17:06:28.789Z,86.70
2018-06-28T17:09:32.445Z,86.50
2018-06-28T17:12:36.279Z,86.60
2018-06-28T17:18:43.258Z,86.40
2018-06-28T17:21:46.932Z,86.50
2018-06-28T17:27:53.981Z,86.90
2018-06-28T17:34:01.123Z,86.70
2018-06-28T17:37:04.744Z,87.00
2018-06-28T17:40:08.393Z,87.20
2018-06-28T17:49:18.733Z,87.10
2018-06-28T17:52:22.421Z,87.20
2018-06-28T17:55:26.109Z,87.10
2018-06-28T17:58:29.749Z,87.30
2018-06-28T18:01:33.369Z,87.60
2018-06-28T18:04:37.046Z,87.70
2018-06-28T18:07:40.963Z,87.90
2018-06-28T18:10:44.579Z,87.60
2018-06-28T18:13:48.201Z,88.10
2018-06-28T18:19:55.314Z,88.30
2018-06-28T18:22:58.922Z,88.30
2018-06-28T18:26:02.667Z,88.40
2018-06-28T18:29:06.277Z,88.40
2018-06-28T18:32:09.976Z,88.40
2018-06-28T18:35:13.583Z,88.80
2018-06-28T18:38:17.224Z,89.00
2018-06-28T18:41:20.808Z,89.30
2018-06-28T18:44:24.485Z,89.50
2018-06-28T18:47:28.135Z,89.50
2018-06-28T18:50:31.825Z,89.70
2018-06-28T18:53:35.995Z,90.00
2018-06-28T18:56:39.645Z,90.10
2018-06-28T19:02:46.766Z,90.30
2018-06-28T19:05:50.416Z,90.30
2018-06-28T19:08:54.119Z,90.30
2018-06-28T19:11:57.719Z,90.40
2018-06-28T19:15:06.828Z,90.50
2018-06-28T19:18:10.410Z,90.60
2018-06-28T19:21:19.723Z,90.70
2018-06-28T19:24:23.497Z,90.60
2018-06-28T19:27:27.182Z,90.70
2018-06-28T19:30:36.287Z,90.80
2018-06-28T19:36:43.326Z,91.00
2018-06-28T19:39:52.415Z,91.10
2018-06-28T19:42:59.121Z,90.90
2018-06-28T19:46:02.776Z,90.80
2018-06-28T19:49:18.555Z,91.00
2018-06-28T19:55:31.406Z,91.40
2018-06-28T19:58:35.037Z,91.50
2018-06-28T20:01:44.151Z,91.50
2018-06-28T20:04:47.938Z,91.60
2018-06-28T20:07:51.591Z,91.80
2018-06-28T20:10:55.207Z,91.80
2018-06-28T20:14:04.265Z,91.80
2018-06-28T20:17:13.425Z,92.00
2018-06-28T20:20:19.062Z,92.10
2018-06-28T20:26:31.762Z,92.30
2018-06-28T20:29:41.199Z,92.40
2018-06-28T20:32:50.275Z,92.70
2018-06-28T20:35:54.032Z,92.80
2018-06-28T20:42:01.031Z,93.00
2018-06-28T20:45:04.839Z,93.10
2018-06-28T20:48:09.062Z,93.30
2018-06-28T20:51:12.810Z,93.40
2018-06-28T20:54:16.286Z,93.50
2018-06-28T21:00:24.100Z,94.00
2018-06-28T21:06:31.052Z,93.80
2018-06-28T21:09:34.673Z,93.90
2018-06-28T21:12:38.322Z,94.10
2018-06-28T21:15:41.979Z,94.20
2018-06-28T21:18:45.654Z,94.20
2018-06-28T21:21:49.269Z,94.30
2018-06-28T21:24:52.917Z,94.40
2018-06-28T21:27:56.530Z,94.50
2018-06-28T21:31:00.195Z,94.60
2018-06-28T21:34:03.869Z,94.70
2018-06-28T21:37:07.806Z,94.80
2018-06-28T21:40:11.418Z,94.90
2018-06-28T21:43:15.045Z,95.10
2018-06-28T21:46:18.742Z,95.20
2018-06-28T21:49:22.366Z,95.30
2018-06-28T21:52:25.990Z,95.30
2018-06-28T21:55:29.715Z,95.40
2018-06-28T21:58:33.331Z,95.50
2018-06-28T22:01:37.099Z,95.60
2018-06-28T22:04:40.719Z,95.80
2018-06-28T22:07:44.408Z,95.90
2018-06-28T22:10:47.962Z,95.90
2018-06-28T22:16:55.044Z,96.20
2018-06-28T22:19:58.677Z,96.40
2018-06-28T22:23:02.293Z,96.40
2018-06-28T22:26:05.999Z,96.60
2018-06-28T22:29:09.535Z,96.80
2018-06-28T22:32:13.168Z,96.90
2018-06-28T22:35:16.774Z,96.90
2018-06-28T22:41:23.802Z,97.20
2018-06-28T22:44:27.442Z,97.20
2018-06-28T22:47:31.097Z,97.30
2018-06-28T22:50:34.752Z,97.50
2018-06-28T22:53:38.386Z,97.50
2018-06-28T22:56:41.997Z,97.60
2018-06-28T22:59:45.635Z,97.70
2018-06-28T23:02:49.272Z,97.70
2018-06-28T23:05:52.887Z,97.80
2018-06-28T23:11:59.872Z,98.30
2018-06-28T23:15:03.496Z,98.00
2018-06-28T23:18:07.097Z,98.20
2018-06-28T23:24:14.085Z,98.20
2018-06-28T23:27:17.734Z,98.70
2018-06-28T23:30:21.338Z,98.60
2018-06-28T23:33:25.009Z,98.70
2018-06-28T23:36:28.617Z,98.80
2018-06-28T23:39:32.245Z,98.90
2018-06-28T23:42:36.674Z,99.10
2018-06-28T23:45:40.346Z,99.20
2018-06-28T23:48:43.949Z,99.40
2018-06-28T23:51:47.588Z,99.60
2018-06-28T23:54:51.211Z,99.70
2018-06-28T23:57:54.829Z,99.80
